Time;durP1;ratioP1;P1;durP2;ratioP2;P2;SDS_P1;SDS_P2;PMS_P1;PMS_P2;Temp;Humidity;BMP_temperature;BMP_pressure;BME280_temperature;BME280_humidity;BME280_pressure;Samples;Min_cycle;Max_cycle;Signal;HPM_P1;HPM_P2
2022/11/14 00:01:25;;;;;;;;;;;12.90;99.90;;;;;;5094476;28;20366;-24
2022/11/14 00:03:51;;;;;;;;;;;12.90;99.90;;;;;;5094839;28;19915;-24
2022/11/14 00:06:16;;;;;;;;;;;12.90;99.90;;;;;;5095107;28;19908;-24
2022/11/14 00:08:42;;;;;;;;;;;12.90;99.90;;;;;;5094555;28;19908;-24
2022/11/14 00:11:08;;;;;;;;;;;12.90;99.90;;;;;;5094817;28;19916;-24
2022/11/14 00:13:34;;;;;;;;;;;12.90;99.90;;;;;;5094210;28;19908;-24
2022/11/14 00:15:59;;;;;;;;;;;12.90;99.90;;;;;;5094392;28;19920;-24
2022/11/14 00:18:25;;;;;;;;;;;12.90;99.90;;;;;;5094686;28;19982;-24
2022/11/14 00:20:51;;;;;;;;;;;12.90;99.90;;;;;;5094429;28;19912;-24
2022/11/14 00:23:17;;;;;;;;;;;12.90;99.90;;;;;;5094585;28;20301;-24
2022/11/14 00:25:44;;;;;;;;;;;12.90;99.90;;;;;;5094798;28;19908;-24
2022/11/14 00:28:09;;;;;;;;;;;12.90;99.90;;;;;;5093495;28;19908;-25
2022/11/14 00:30:35;;;;;;;;;;;12.90;99.90;;;;;;5094458;28;19985;-24
2022/11/14 00:33:00;;;;;;;;;;;12.90;99.90;;;;;;5093355;28;19912;-24
2022/11/14 00:35:26;;;;;;;;;;;12.90;99.90;;;;;;5093560;28;19912;-24
2022/11/14 00:37:51;;;;;;;;;;;12.90;99.90;;;;;;5093909;28;19994;-24
2022/11/14 00:40:17;;;;;;;;;;;12.90;99.90;;;;;;5093824;28;19961;-24
2022/11/14 00:42:43;;;;;;;;;;;12.90;99.90;;;;;;5093866;28;19920;-24
2022/11/14 00:45:09;;;;;;;;;;;12.90;99.90;;;;;;5094487;28;19951;-24
2022/11/14 00:47:34;;;;;;;;;;;12.90;99.90;;;;;;5093517;28;19943;-24
2022/11/14 00:50:00;;;;;;;;;;;12.90;99.90;;;;;;5094234;28;20281;-24
2022/11/14 00:52:25;;;;;;;;;;;12.90;99.90;;;;;;5093944;28;19908;-24
2022/11/14 00:54:51;;;;;;;;;;;12.80;99.90;;;;;;5093573;28;19912;-24
2022/11/14 00:57:16;;;;;;;;;;;12.80;99.90;;;;;;5093813;28;19939;-24
2022/11/14 00:59:42;;;;;;;;;;;12.80;99.90;;;;;;5093186;28;19933;-24
2022/11/14 01:02:07;;;;;;;;;;;12.90;99.90;;;;;;5093006;28;19909;-24
2022/11/14 01:04:33;;;;;;;;;;;12.80;99.90;;;;;;5093276;28;20251;-24
2022/11/14 01:06:58;;;;;;;;;;;12.80;99.90;;;;;;5092065;28;19958;-24
2022/11/14 01:09:24;;;;;;;;;;;12.80;99.90;;;;;;5092904;28;19954;-24
2022/11/14 01:11:50;;;;;;;;;;;12.80;99.90;;;;;;5092852;28;19998;-24
2022/11/14 01:14:15;;;;;;;;;;;12.80;99.90;;;;;;5092917;28;19973;-24
2022/11/14 01:16:41;;;;;;;;;;;12.80;99.90;;;;;;5092751;28;20419;-24
2022/11/14 01:19:07;;;;;;;;;;;12.80;99.90;;;;;;5092390;28;20319;-24
2022/11/14 01:21:32;;;;;;;;;;;12.80;99.90;;;;;;5092679;28;19956;-24
2022/11/14 01:23:58;;;;;;;;;;;12.80;99.90;;;;;;5093608;28;20349;-24
2022/11/14 01:26:23;;;;;;;;;;;12.80;99.90;;;;;;5091416;28;19912;-24
2022/11/14 01:28:49;;;;;;;;;;;12.80;99.90;;;;;;5092639;28;19912;-24
2022/11/14 01:31:16;;;;;;;;;;;12.80;99.90;;;;;;5092582;28;20393;-24
2022/11/14 01:33:42;;;;;;;;;;;12.80;99.90;;;;;;5092844;28;19912;-24
2022/11/14 01:36:08;;;;;;;;;;;12.80;99.90;;;;;;5092131;28;19934;-24
2022/11/14 01:38:34;;;;;;;;;;;12.80;99.90;;;;;;5091978;28;19918;-24
2022/11/14 01:40:59;;;;;;;;;;;12.80;99.90;;;;;;5091920;28;20014;-24
2022/11/14 01:43:27;;;;;;;;;;;12.80;99.90;;;;;;5093456;28;19950;-24
2022/11/14 01:46:00;;;;;;;;;;;12.70;99.90;;;;;;5092930;28;19915;-24
2022/11/14 01:48:48;;;;;;;;;;;12.70;99.90;;;;;;5092208;28;19912;-24
2022/11/14 01:51:33;;;;;;;;;;;12.80;99.90;;;;;;5084389;28;20003;-24
2022/11/14 01:54:00;;;;;;;;;;;12.70;99.90;;;;;;5092441;28;19915;-24
2022/11/14 01:56:38;;;;;;;;;;;12.70;99.90;;;;;;5092025;28;20015;-24
2022/11/14 01:59:08;;;;;;;;;;;12.70;99.90;;;;;;5091645;28;19912;-24
2022/11/14 02:01:35;;;;;;;;;;;12.70;99.90;;;;;;5092410;28;19919;-24
2022/11/14 02:04:03;;;;;;;;;;;12.70;99.90;;;;;;5092133;28;20445;-24
2022/11/14 02:06:29;;;;;;;;;;;12.70;99.90;;;;;;5092766;28;20380;-24
2022/11/14 02:08:56;;;;;;;;;;;12.70;99.90;;;;;;5091680;28;19920;-24
2022/11/14 02:11:22;;;;;;;;;;;12.80;99.90;;;;;;5092057;28;19908;-24
2022/11/14 02:13:47;;;;;;;;;;;12.70;99.90;;;;;;5092484;28;19909;-24
2022/11/14 02:16:13;;;;;;;;;;;12.70;99.90;;;;;;5091848;28;19920;-24
2022/11/14 02:18:39;;;;;;;;;;;12.70;99.90;;;;;;5091915;28;19915;-24
2022/11/14 02:21:05;;;;;;;;;;;12.70;99.90;;;;;;5092106;28;19958;-24
2022/11/14 02:23:31;;;;;;;;;;;12.80;99.90;;;;;;5092301;28;19935;-24
2022/11/14 02:25:57;;;;;;;;;;;12.70;99.90;;;;;;5091795;28;19955;-24
2022/11/14 02:28:24;;;;;;;;;;;12.70;99.90;;;;;;5091793;28;19936;-24
2022/11/14 02:30:49;;;;;;;;;;;12.70;99.90;;;;;;5091982;28;20284;-23
2022/11/14 02:33:15;;;;;;;;;;;12.70;99.90;;;;;;5092101;28;20369;-24
2022/11/14 02:35:40;;;;;;;;;;;12.70;99.90;;;;;;5092527;28;19966;-24
2022/11/14 02:38:06;;;;;;;;;;;12.70;99.90;;;;;;5091284;28;19939;-24
2022/11/14 02:40:32;;;;;;;;;;;12.70;99.90;;;;;;5091420;28;19965;-24
2022/11/14 02:42:57;;;;;;;;;;;12.70;99.90;;;;;;5091984;28;19912;-24
2022/11/14 02:45:23;;;;;;;;;;;12.70;99.90;;;;;;5091453;28;19938;-24
2022/11/14 02:47:48;;;;;;;;;;;12.70;99.90;;;;;;5091805;28;19951;-24
2022/11/14 02:50:14;;;;;;;;;;;12.70;99.90;;;;;;5091584;28;19915;-24
2022/11/14 02:52:39;;;;;;;;;;;12.70;99.90;;;;;;5093810;28;20297;-24
2022/11/14 02:55:07;;;;;;;;;;;12.70;99.90;;;;;;5094947;28;21280;-24
2022/11/14 02:57:32;;;;;;;;;;;12.70;99.90;;;;;;5095522;28;19951;-24
2022/11/14 02:59:58;;;;;;;;;;;12.70;99.90;;;;;;5095064;28;19912;-24
2022/11/14 03:02:23;;;;;;;;;;;12.70;99.90;;;;;;5096017;28;19912;-24
2022/11/14 03:04:49;;;;;;;;;;;12.70;99.90;;;;;;5095546;28;19912;-24
2022/11/14 03:07:14;;;;;;;;;;;12.70;99.90;;;;;;5095166;28;20371;-24
2022/11/14 03:09:40;;;;;;;;;;;12.70;99.90;;;;;;5094536;28;19918;-24
2022/11/14 03:12:06;;;;;;;;;;;12.70;99.90;;;;;;5095280;28;19915;-24
2022/11/14 03:14:31;;;;;;;;;;;12.70;99.90;;;;;;5095211;28;19915;-24
2022/11/14 03:16:57;;;;;;;;;;;12.70;99.90;;;;;;5095740;28;19940;-24
2022/11/14 03:19:22;;;;;;;;;;;12.70;99.90;;;;;;5095134;28;19909;-24
2022/11/14 03:21:48;;;;;;;;;;;12.70;99.90;;;;;;5095713;28;19908;-24
2022/11/14 03:24:13;;;;;;;;;;;12.60;99.90;;;;;;5095339;28;19916;-24
2022/11/14 03:26:39;;;;;;;;;;;12.70;99.90;;;;;;5095230;28;19919;-24
2022/11/14 03:29:05;;;;;;;;;;;12.70;99.90;;;;;;5094384;28;19915;-24
2022/11/14 03:31:30;;;;;;;;;;;12.60;99.70;;;;;;5094996;28;19922;-24
2022/11/14 03:33:55;;;;;;;;;;;12.30;99.60;;;;;;5094999;28;20362;-24
2022/11/14 03:36:21;;;;;;;;;;;12.20;99.90;;;;;;5094881;28;19919;-24
2022/11/14 03:38:47;;;;;;;;;;;12.20;99.90;;;;;;5093966;28;19912;-25
2022/11/14 03:41:12;;;;;;;;;;;12.20;99.90;;;;;;5094636;28;19916;-24
2022/11/14 03:43:38;;;;;;;;;;;12.30;99.90;;;;;;5094657;28;20327;-24
2022/11/14 03:46:03;;;;;;;;;;;12.30;99.90;;;;;;5094837;28;19908;-24
2022/11/14 03:48:29;;;;;;;;;;;12.30;99.90;;;;;;5094056;28;19908;-24
2022/11/14 03:50:55;;;;;;;;;;;12.30;99.90;;;;;;5094778;28;19915;-24
2022/11/14 03:53:21;;;;;;;;;;;12.10;99.30;;;;;;5094875;28;19908;-24
2022/11/14 03:55:46;;;;;;;;;;;12.00;99.60;;;;;;5094959;28;19938;-24
2022/11/14 03:58:12;;;;;;;;;;;11.90;99.90;;;;;;5094446;28;19952;-24
2022/11/14 04:00:37;;;;;;;;;;;12.00;99.90;;;;;;5095183;28;19916;-24
2022/11/14 04:03:03;;;;;;;;;;;12.00;99.90;;;;;;5094083;28;19915;-24
2022/11/14 04:05:29;;;;;;;;;;;12.00;99.90;;;;;;5095101;28;19908;-24
2022/11/14 04:07:54;;;;;;;;;;;12.10;99.90;;;;;;5094100;28;19908;-24
2022/11/14 04:10:20;;;;;;;;;;;12.10;99.90;;;;;;5094021;28;19912;-24
2022/11/14 04:12:46;;;;;;;;;;;12.10;99.90;;;;;;5094991;28;19909;-24
2022/11/14 04:15:12;;;;;;;;;;;12.10;99.90;;;;;;5094519;28;19912;-24
2022/11/14 04:17:37;;;;;;;;;;;12.10;99.90;;;;;;5094181;28;20337;-24
2022/11/14 04:20:03;;;;;;;;;;;12.10;99.90;;;;;;5093652;28;19919;-24
2022/11/14 04:22:28;;;;;;;;;;;12.20;99.90;;;;;;5094144;28;19926;-24
2022/11/14 04:24:54;;;;;;;;;;;12.20;99.90;;;;;;5094122;28;20007;-24
2022/11/14 04:27:19;;;;;;;;;;;12.20;99.90;;;;;;5094329;28;19912;-24
2022/11/14 04:29:45;;;;;;;;;;;12.20;99.90;;;;;;5094283;28;20362;-24
2022/11/14 04:32:10;;;;;;;;;;;12.20;99.90;;;;;;5094558;28;19919;-24
2022/11/14 04:34:36;;;;;;;;;;;12.20;99.90;;;;;;5093137;28;19970;-24
2022/11/14 04:37:01;;;;;;;;;;;12.20;99.90;;;;;;5094255;28;19968;-24
2022/11/14 04:39:27;;;;;;;;;;;12.20;99.90;;;;;;5094267;28;20376;-24
2022/11/14 04:41:52;;;;;;;;;;;12.20;99.90;;;;;;5094410;28;19916;-24
2022/11/14 04:44:18;;;;;;;;;;;12.20;99.90;;;;;;5094016;28;19953;-24
2022/11/14 04:46:43;;;;;;;;;;;12.20;99.90;;;;;;5093973;28;20370;-24
2022/11/14 04:49:09;;;;;;;;;;;12.20;99.90;;;;;;5093525;28;19919;-24
2022/11/14 04:51:34;;;;;;;;;;;12.20;99.90;;;;;;5093964;28;19912;-24
2022/11/14 04:54:00;;;;;;;;;;;12.20;99.90;;;;;;5094231;28;20309;-24
2022/11/14 04:56:26;;;;;;;;;;;12.20;99.90;;;;;;5094061;28;19919;-24
2022/11/14 04:58:51;;;;;;;;;;;12.20;99.90;;;;;;5093689;28;20373;-24
2022/11/14 05:01:17;;;;;;;;;;;12.20;99.90;;;;;;5093837;28;20293;-24
2022/11/14 05:03:42;;;;;;;;;;;12.20;99.90;;;;;;5095003;28;20305;-24
2022/11/14 05:06:08;;;;;;;;;;;12.20;99.90;;;;;;5092974;28;19999;-24
2022/11/14 05:08:33;;;;;;;;;;;12.20;99.90;;;;;;5093208;28;20338;-24
2022/11/14 05:10:59;;;;;;;;;;;12.20;99.90;;;;;;5092398;28;19930;-24
2022/11/14 05:13:24;;;;;;;;;;;12.30;99.90;;;;;;5094229;28;19909;-24
2022/11/14 05:15:50;;;;;;;;;;;12.20;99.90;;;;;;5092025;28;20422;-24
2022/11/14 05:18:15;;;;;;;;;;;12.20;99.90;;;;;;5092526;28;19962;-24
2022/11/14 05:20:41;;;;;;;;;;;12.20;99.90;;;;;;5092825;28;20007;-24
2022/11/14 05:23:16;;;;;;;;;;;12.20;99.90;;;;;;5093104;28;20438;-24
2022/11/14 05:25:43;;;;;;;;;;;12.30;99.90;;;;;;5093825;28;19923;-24
2022/11/14 05:28:08;;;;;;;;;;;12.30;99.90;;;;;;5093302;28;19919;-24
2022/11/14 05:30:34;;;;;;;;;;;12.30;99.90;;;;;;5093825;28;19908;-24
2022/11/14 05:32:59;;;;;;;;;;;12.30;99.90;;;;;;5092957;28;20014;-24
2022/11/14 05:35:25;;;;;;;;;;;12.20;99.90;;;;;;5092400;28;19933;-24
2022/11/14 05:37:50;;;;;;;;;;;12.30;99.90;;;;;;5092671;28;19955;-24
2022/11/14 05:40:18;;;;;;;;;;;12.30;99.90;;;;;;5093444;28;20354;-24
2022/11/14 05:42:43;;;;;;;;;;;12.30;99.90;;;;;;5093560;28;19923;-24
2022/11/14 05:45:09;;;;;;;;;;;12.30;99.90;;;;;;5093240;28;19908;-24
2022/11/14 05:47:34;;;;;;;;;;;12.30;99.90;;;;;;5092322;28;19908;-24
2022/11/14 05:50:00;;;;;;;;;;;12.30;99.90;;;;;;5092309;28;19934;-24
2022/11/14 05:52:26;;;;;;;;;;;12.30;99.90;;;;;;5092749;28;19913;-24
2022/11/14 05:54:51;;;;;;;;;;;12.30;99.90;;;;;;5092837;28;19916;-24
2022/11/14 05:57:17;;;;;;;;;;;12.30;99.90;;;;;;5092578;28;19909;-24
2022/11/14 05:59:42;;;;;;;;;;;12.30;99.90;;;;;;5092394;28;19912;-24
2022/11/14 06:02:08;;;;;;;;;;;12.30;99.90;;;;;;5092362;28;19912;-24
2022/11/14 06:04:34;;;;;;;;;;;12.30;99.90;;;;;;5091932;28;19912;-24
2022/11/14 06:06:59;;;;;;;;;;;12.30;99.90;;;;;;5092520;28;20446;-24
2022/11/14 06:09:25;;;;;;;;;;;12.30;99.90;;;;;;5091548;28;19916;-24
2022/11/14 06:11:50;;;;;;;;;;;12.20;99.90;;;;;;5092577;28;19919;-24
2022/11/14 06:14:15;;;;;;;;;;;12.30;99.90;;;;;;5092948;28;20285;-24
2022/11/14 06:16:41;;;;;;;;;;;12.30;99.90;;;;;;5092031;28;19997;-24
2022/11/14 06:19:06;;;;;;;;;;;12.20;99.90;;;;;;5092307;28;19915;-24
2022/11/14 06:21:32;;;;;;;;;;;12.30;99.90;;;;;;5091909;28;20293;-24
2022/11/14 06:23:57;;;;;;;;;;;12.20;99.90;;;;;;5092665;28;19915;-24
2022/11/14 06:26:24;;;;;;;;;;;12.30;99.90;;;;;;5091765;28;20025;-24
2022/11/14 06:28:50;;;;;;;;;;;12.20;99.90;;;;;;5091145;28;19961;-24
2022/11/14 06:31:16;;;;;;;;;;;12.20;99.90;;;;;;5091875;28;19912;-24
2022/11/14 06:33:42;;;;;;;;;;;12.30;99.90;;;;;;5092972;28;19912;-24
2022/11/14 06:36:08;;;;;;;;;;;12.30;99.90;;;;;;5091537;28;19919;-24
2022/11/14 06:38:34;;;;;;;;;;;12.20;99.90;;;;;;5091746;28;19912;-24
2022/11/14 06:41:09;;;;;;;;;;;12.30;99.90;;;;;;5091607;28;19964;-24
2022/11/14 06:43:35;;;;;;;;;;;12.20;99.90;;;;;;5092085;28;19915;-24
2022/11/14 06:46:01;;;;;;;;;;;12.30;99.90;;;;;;5092319;28;20346;-24
2022/11/14 06:48:27;;;;;;;;;;;12.20;99.90;;;;;;5091176;28;19958;-24
2022/11/14 06:50:53;;;;;;;;;;;12.20;99.90;;;;;;5091767;28;20044;-24
2022/11/14 06:53:19;;;;;;;;;;;12.20;99.90;;;;;;5092119;28;20303;-24
2022/11/14 06:55:55;;;;;;;;;;;12.20;99.90;;;;;;5092398;28;19972;-24
2022/11/14 06:58:20;;;;;;;;;;;12.20;99.90;;;;;;5091237;28;19912;-23
2022/11/14 07:00:46;;;;;;;;;;;12.20;99.90;;;;;;5092047;28;19915;-24
2022/11/14 07:03:11;;;;;;;;;;;12.20;99.90;;;;;;5091381;28;20086;-24
2022/11/14 07:05:37;;;;;;;;;;;12.20;99.90;;;;;;5091554;28;19920;-24
2022/11/14 07:08:02;;;;;;;;;;;12.20;99.90;;;;;;5091174;28;20331;-24
2022/11/14 07:10:28;;;;;;;;;;;12.20;99.90;;;;;;5091862;28;20011;-24
2022/11/14 07:12:53;;;;;;;;;;;12.20;99.90;;;;;;5092129;28;19931;-24
2022/11/14 07:15:19;;;;;;;;;;;12.20;99.90;;;;;;5091234;28;19912;-24
2022/11/14 07:17:47;;;;;;;;;;;12.20;99.90;;;;;;5091049;28;19919;-24
2022/11/14 07:20:13;;;;;;;;;;;12.20;99.90;;;;;;5090242;28;19947;-24
2022/11/14 07:22:39;;;;;;;;;;;12.20;99.90;;;;;;5091464;28;19912;-24
2022/11/14 07:25:04;;;;;;;;;;;12.20;99.90;;;;;;5091674;28;20301;-24
2022/11/14 07:27:30;;;;;;;;;;;12.20;99.90;;;;;;5091167;28;19912;-24
2022/11/14 07:29:56;;;;;;;;;;;12.20;99.90;;;;;;5090992;28;19966;-24
2022/11/14 07:32:21;;;;;;;;;;;12.20;99.90;;;;;;5091368;28;19978;-24
2022/11/14 07:34:47;;;;;;;;;;;12.10;99.90;;;;;;5091331;28;19908;-24
2022/11/14 07:37:12;;;;;;;;;;;12.20;99.90;;;;;;5091702;28;19908;-24
2022/11/14 07:39:37;;;;;;;;;;;12.20;99.90;;;;;;5094093;28;19919;-24
2022/11/14 07:42:03;;;;;;;;;;;12.10;99.90;;;;;;5094894;28;19916;-24
2022/11/14 07:44:28;;;;;;;;;;;12.10;99.90;;;;;;5094905;28;19955;-24
2022/11/14 07:46:54;;;;;;;;;;;12.10;99.90;;;;;;5094682;28;19965;-24
2022/11/14 07:49:19;;;;;;;;;;;12.10;99.90;;;;;;5094344;28;19912;-24
2022/11/14 07:51:45;;;;;;;;;;;12.20;99.90;;;;;;5094745;28;19912;-24
2022/11/14 07:54:11;;;;;;;;;;;12.10;99.90;;;;;;5094516;28;20292;-24
2022/11/14 07:56:37;;;;;;;;;;;12.10;99.90;;;;;;5094876;28;19916;-24
2022/11/14 07:59:03;;;;;;;;;;;12.20;99.90;;;;;;5093990;28;19908;-24
2022/11/14 08:01:28;;;;;;;;;;;12.20;99.90;;;;;;5094744;28;19908;-24
2022/11/14 08:03:54;;;;;;;;;;;12.20;99.90;;;;;;5094421;28;19947;-23
2022/11/14 08:06:19;;;;;;;;;;;12.20;99.90;;;;;;5094463;28;19908;-24
2022/11/14 08:08:45;;;;;;;;;;;12.20;99.90;;;;;;5093573;28;19908;-24
2022/11/14 08:11:10;;;;;;;;;;;12.20;99.90;;;;;;5093959;28;19924;-24
2022/11/14 08:13:36;;;;;;;;;;;12.20;99.90;;;;;;5094249;28;20634;-24
2022/11/14 08:16:08;;;;;;;;;;;12.20;99.90;;;;;;5093821;28;19963;-24
2022/11/14 08:18:34;;;;;;;;;;;12.20;99.90;;;;;;5093327;28;19966;-24
2022/11/14 08:21:02;;;;;;;;;;;12.20;99.90;;;;;;5093752;28;20373;-23
2022/11/14 08:23:28;;;;;;;;;;;12.20;99.90;;;;;;5093800;28;19952;-24
2022/11/14 08:25:53;;;;;;;;;;;12.20;99.90;;;;;;5094377;28;19966;-24
2022/11/14 08:28:18;;;;;;;;;;;12.20;99.90;;;;;;5093472;28;19951;-24
2022/11/14 08:30:44;;;;;;;;;;;12.20;99.90;;;;;;5094073;28;19974;-24
2022/11/14 08:33:09;;;;;;;;;;;12.20;99.90;;;;;;5093818;28;19909;-24
2022/11/14 08:35:35;;;;;;;;;;;12.20;99.90;;;;;;5093940;28;20451;-24
2022/11/14 08:38:01;;;;;;;;;;;12.30;99.90;;;;;;5093668;28;20369;-24
2022/11/14 08:40:27;;;;;;;;;;;12.30;99.90;;;;;;5093255;28;20387;-24
2022/11/14 08:42:57;;;;;;;;;;;12.30;99.90;;;;;;5094425;28;19915;-24
2022/11/14 08:45:23;;;;;;;;;;;12.30;99.90;;;;;;5093662;28;20434;-24
2022/11/14 08:47:52;;;;;;;;;;;12.30;99.90;;;;;;5093226;28;19908;-24
2022/11/14 08:50:18;;;;;;;;;;;12.30;99.90;;;;;;5092585;28;20031;-24
2022/11/14 08:52:48;;;;;;;;;;;12.30;99.90;;;;;;5091931;28;19912;-24
2022/11/14 08:55:13;;;;;;;;;;;12.30;99.90;;;;;;5093310;28;19916;-24
2022/11/14 08:57:38;;;;;;;;;;;12.30;99.90;;;;;;5093179;28;19912;-24
2022/11/14 09:00:04;;;;;;;;;;;12.30;99.90;;;;;;5091759;28;19966;-24
2022/11/14 09:02:30;;;;;;;;;;;12.30;99.90;;;;;;5093295;28;19922;-24
2022/11/14 09:04:55;;;;;;;;;;;12.30;99.90;;;;;;5093201;28;19908;-24
2022/11/14 09:07:21;;;;;;;;;;;12.30;99.90;;;;;;5093101;28;19912;-24
2022/11/14 09:09:46;;;;;;;;;;;12.30;99.90;;;;;;5092523;28;19908;-24
2022/11/14 09:12:12;;;;;;;;;;;12.30;99.90;;;;;;5092669;28;20056;-24
2022/11/14 09:14:38;;;;;;;;;;;12.30;99.90;;;;;;5093047;28;19959;-24
2022/11/14 09:17:03;;;;;;;;;;;12.30;99.90;;;;;;5092928;28;19950;-24
2022/11/14 09:19:29;;;;;;;;;;;12.30;99.90;;;;;;5092331;28;20265;-24
2022/11/14 09:21:54;;;;;;;;;;;12.20;99.90;;;;;;5092705;28;19951;-24
2022/11/14 09:24:20;;;;;;;;;;;12.20;99.90;;;;;;5092841;28;20006;-24
2022/11/14 09:26:48;;;;;;;;;;;12.20;99.90;;;;;;5092532;28;19912;-24
2022/11/14 09:29:14;;;;;;;;;;;12.20;99.90;;;;;;5092022;28;19908;-24
2022/11/14 09:31:40;;;;;;;;;;;12.20;99.90;;;;;;5092710;28;19916;-24
2022/11/14 09:34:05;;;;;;;;;;;12.20;99.90;;;;;;5092813;28;19912;-24
2022/11/14 09:36:31;;;;;;;;;;;12.20;99.90;;;;;;5092456;28;19920;-24
2022/11/14 09:38:56;;;;;;;;;;;12.20;99.90;;;;;;5092036;28;20419;-24
2022/11/14 09:41:23;;;;;;;;;;;12.20;99.90;;;;;;5092436;28;19923;-24
2022/11/14 09:44:15;;;;;;;;;;;12.20;99.90;;;;;;5092396;28;19965;-24
2022/11/14 09:46:44;;;;;;;;;;;12.20;99.90;;;;;;5092274;28;20125;-24
2022/11/14 09:49:15;;;;;;;;;;;12.20;99.90;;;;;;5091785;28;19927;-24
2022/11/14 09:51:48;;;;;;;;;;;12.20;99.90;;;;;;5092162;28;20323;-24
2022/11/14 09:54:21;;;;;;;;;;;12.20;99.90;;;;;;5092491;28;19910;-24
2022/11/14 09:56:47;;;;;;;;;;;12.20;99.90;;;;;;5092112;28;19974;-24
2022/11/14 09:59:13;;;;;;;;;;;12.20;99.90;;;;;;5091703;28;19947;-24
2022/11/14 10:01:58;;;;;;;;;;;12.20;99.90;;;;;;5092062;28;19915;-24
2022/11/14 10:04:26;;;;;;;;;;;12.30;99.90;;;;;;5092255;28;19913;-24
2022/11/14 10:07:10;;;;;;;;;;;12.30;99.90;;;;;;5092238;28;20277;-24
2022/11/14 10:09:35;;;;;;;;;;;12.30;99.90;;;;;;5091940;28;20340;-24
2022/11/14 10:12:06;;;;;;;;;;;12.30;99.90;;;;;;5090409;28;19908;-24
2022/11/14 10:14:34;;;;;;;;;;;12.30;99.90;;;;;;5092542;28;19936;-24
2022/11/14 10:17:06;;;;;;;;;;;12.30;99.90;;;;;;5091972;28;19912;-24
2022/11/14 10:19:39;;;;;;;;;;;12.30;99.90;;;;;;5091195;28;19931;-24
2022/11/14 10:22:26;;;;;;;;;;;12.30;99.90;;;;;;5092550;28;19908;-23
2022/11/14 10:24:54;;;;;;;;;;;12.30;99.90;;;;;;5092424;28;20014;-24
2022/11/14 10:27:32;;;;;;;;;;;12.30;99.90;;;;;;5091681;28;19908;-24
2022/11/14 10:30:17;;;;;;;;;;;12.30;99.90;;;;;;5091990;28;20365;-24
2022/11/14 10:33:01;;;;;;;;;;;12.30;99.90;;;;;;5092209;28;19912;-24
2022/11/14 10:35:32;;;;;;;;;;;12.30;99.90;;;;;;5091953;28;19916;-23
2022/11/14 10:38:01;;;;;;;;;;;12.30;99.90;;;;;;5091037;28;20383;-23
2022/11/14 10:40:32;;;;;;;;;;;12.30;99.90;;;;;;5091221;28;20362;-23
2022/11/14 10:43:06;;;;;;;;;;;12.30;99.90;;;;;;5091758;28;20389;-23
2022/11/14 10:45:34;;;;;;;;;;;12.30;99.90;;;;;;5091989;28;19973;-23
2022/11/14 10:48:23;;;;;;;;;;;12.20;99.90;;;;;;5091435;28;19912;-23
2022/11/14 10:50:55;;;;;;;;;;;12.30;99.90;;;;;;5083196;28;19908;-23
2022/11/14 10:53:24;;;;;;;;;;;12.30;99.90;;;;;;5091679;28;19912;-23
2022/11/14 10:55:50;;;;;;;;;;;12.30;99.90;;;;;;5091386;28;19922;-23
2022/11/14 10:58:16;;;;;;;;;;;12.30;99.90;;;;;;5091056;28;19989;-23
2022/11/14 11:00:41;;;;;;;;;;;12.30;99.90;;;;;;5091407;28;20358;-24
2022/11/14 11:03:07;;;;;;;;;;;12.30;99.90;;;;;;5092104;28;19908;-23
2022/11/14 11:05:43;;;;;;;;;;;12.30;99.90;;;;;;5091733;28;19935;-23
2022/11/14 11:13:51;;;;;;;;;;;12.30;99.90;;;;;;5094234;28;19969;-23
2022/11/14 11:16:18;;;;;;;;;;;12.30;99.90;;;;;;5095283;28;19916;-24
2022/11/14 11:18:44;;;;;;;;;;;12.30;99.90;;;;;;5094848;28;20362;-24
2022/11/14 11:21:14;;;;;;;;;;;12.30;99.90;;;;;;5095083;28;19915;-23
2022/11/14 11:23:50;;;;;;;;;;;12.30;99.90;;;;;;5094955;28;20025;-23
2022/11/14 11:26:18;;;;;;;;;;;12.30;99.90;;;;;;5095554;28;19908;-23
2022/11/14 11:28:59;;;;;;;;;;;12.30;99.90;;;;;;5094860;28;19908;-24
2022/11/14 11:31:24;;;;;;;;;;;12.30;99.90;;;;;;5094829;28;20377;-23
2022/11/14 11:33:50;;;;;;;;;;;12.30;99.90;;;;;;5095056;28;19909;-23
2022/11/14 11:36:21;;;;;;;;;;;12.30;99.90;;;;;;5095338;28;19912;-23
2022/11/14 11:38:48;;;;;;;;;;;12.30;99.90;;;;;;5095321;28;20268;-24
2022/11/14 11:41:31;;;;;;;;;;;12.30;99.90;;;;;;5095635;28;19920;-23
2022/11/14 11:43:59;;;;;;;;;;;12.30;99.90;;;;;;5095264;28;19975;-23
2022/11/14 11:46:45;;;;;;;;;;;12.30;99.90;;;;;;5095688;28;19950;-24
2022/11/14 11:49:31;;;;;;;;;;;12.30;99.90;;;;;;5094200;28;20322;-23
2022/11/14 11:52:00;;;;;;;;;;;12.30;99.90;;;;;;5093948;28;19908;-23
2022/11/14 11:54:28;;;;;;;;;;;12.30;99.90;;;;;;5094518;28;19908;-23
2022/11/14 11:56:57;;;;;;;;;;;12.30;99.90;;;;;;5094423;28;20043;-23
2022/11/14 11:59:32;;;;;;;;;;;12.30;99.90;;;;;;5093896;28;19908;-23
2022/11/14 12:02:00;;;;;;;;;;;12.30;99.90;;;;;;5094428;28;19999;-23
2022/11/14 12:04:25;;;;;;;;;;;12.30;99.90;;;;;;5094732;28;20385;-23
2022/11/14 12:06:54;;;;;;;;;;;12.30;99.90;;;;;;5094603;28;19951;-24
2022/11/14 12:09:30;;;;;;;;;;;12.30;99.90;;;;;;5093887;28;19926;-23
2022/11/14 12:11:59;;;;;;;;;;;12.20;99.90;;;;;;5094065;28;20002;-24
2022/11/14 12:14:25;;;;;;;;;;;12.30;99.90;;;;;;5094420;28;20242;-23
2022/11/14 12:16:50;;;;;;;;;;;12.30;99.90;;;;;;5094680;28;19931;-23
2022/11/14 12:19:34;;;;;;;;;;;12.30;99.90;;;;;;5093467;28;19915;-23
2022/11/14 12:22:09;;;;;;;;;;;12.30;99.90;;;;;;5093899;28;19919;-23
2022/11/14 12:24:34;;;;;;;;;;;12.30;99.90;;;;;;5093786;28;19908;-23
2022/11/14 12:27:20;;;;;;;;;;;12.30;99.90;;;;;;5094247;28;20281;-23
2022/11/14 12:29:48;;;;;;;;;;;12.30;99.90;;;;;;5093978;28;19927;-23
2022/11/14 12:32:18;;;;;;;;;;;12.30;99.90;;;;;;5094000;28;19909;-23
2022/11/14 12:34:46;;;;;;;;;;;12.30;99.90;;;;;;5093814;28;20370;-24
2022/11/14 12:37:21;;;;;;;;;;;12.40;99.90;;;;;;5094049;28;19947;-23
2022/11/14 12:40:06;;;;;;;;;;;12.40;99.90;;;;;;5093429;28;19912;-23
2022/11/14 12:42:32;;;;;;;;;;;12.40;99.90;;;;;;5093838;28;19970;-24
2022/11/14 12:44:58;;;;;;;;;;;12.40;99.90;;;;;;5093253;28;19913;-23
2022/11/14 12:47:24;;;;;;;;;;;12.40;99.90;;;;;;5093900;28;19908;-23
2022/11/14 12:49:53;;;;;;;;;;;12.40;99.90;;;;;;5093474;28;19999;-23
2022/11/14 12:52:37;;;;;;;;;;;12.40;99.90;;;;;;5093631;28;20335;-23
2022/11/14 12:55:02;;;;;;;;;;;12.40;99.90;;;;;;5094054;28;19912;-23
2022/11/14 12:57:48;;;;;;;;;;;12.40;99.90;;;;;;5093624;28;20046;-23
2022/11/14 13:00:14;;;;;;;;;;;12.40;99.90;;;;;;5093146;28;19916;-24
2022/11/14 13:03:00;;;;;;;;;;;12.40;99.90;;;;;;5092944;28;19909;-23
2022/11/14 13:05:45;;;;;;;;;;;12.40;99.90;;;;;;5081708;28;19908;-23
2022/11/14 13:08:11;;;;;;;;;;;12.40;99.90;;;;;;5092565;28;20501;-24
2022/11/14 13:10:37;;;;;;;;;;;12.40;99.90;;;;;;5092811;28;19957;-23
2022/11/14 13:21:46;;;;;;;;;;;12.40;99.90;;;;;;5092725;28;19919;-23
2022/11/14 13:24:16;;;;;;;;;;;12.40;99.90;;;;;;5092675;28;20353;-24
2022/11/14 13:26:41;;;;;;;;;;;12.40;99.90;;;;;;5092575;28;19908;-23
2022/11/14 13:29:07;;;;;;;;;;;12.40;99.90;;;;;;5092128;28;19965;-24
2022/11/14 13:31:35;;;;;;;;;;;12.40;99.90;;;;;;5092577;28;19908;-23
2022/11/14 13:34:19;;;;;;;;;;;12.40;99.90;;;;;;5093250;28;19908;-23
2022/11/14 13:36:53;;;;;;;;;;;12.40;99.90;;;;;;5091711;28;20011;-23
2022/11/14 13:39:37;;;;;;;;;;;12.40;99.90;;;;;;5092364;28;19908;-24
2022/11/14 13:42:06;;;;;;;;;;;12.40;99.90;;;;;;5092467;28;19930;-23
2022/11/14 13:44:34;;;;;;;;;;;12.50;99.90;;;;;;5092552;28;19912;-23
2022/11/14 13:47:19;;;;;;;;;;;12.50;99.90;;;;;;5092813;28;20405;-24
2022/11/14 13:49:55;;;;;;;;;;;12.50;99.90;;;;;;5091799;28;20301;-24
2022/11/14 13:52:21;;;;;;;;;;;12.60;99.90;;;;;;5092149;28;19934;-23
2022/11/14 13:54:47;;;;;;;;;;;12.60;99.90;;;;;;5092268;28;20424;-24
2022/11/14 13:57:32;;;;;;;;;;;12.60;99.90;;;;;;5092046;28;19954;-23
2022/11/14 14:00:11;;;;;;;;;;;12.60;99.90;;;;;;5092096;28;19919;-24
2022/11/14 14:02:50;;;;;;;;;;;12.60;99.90;;;;;;5091945;28;20346;-23
2022/11/14 14:05:31;;;;;;;;;;;12.60;99.90;;;;;;5092633;28;19912;-23
2022/11/14 14:08:01;;;;;;;;;;;12.60;99.90;;;;;;5091387;28;19939;-23
2022/11/14 14:10:40;;;;;;;;;;;12.50;99.90;;;;;;5092047;28;20262;-23
2022/11/14 14:13:05;;;;;;;;;;;12.50;99.90;;;;;;5092180;28;19915;-24
2022/11/14 14:15:45;;;;;;;;;;;12.50;99.90;;;;;;5091897;28;20006;-24
2022/11/14 14:18:10;;;;;;;;;;;12.40;99.90;;;;;;5091487;28;19912;-24
2022/11/14 14:20:43;;;;;;;;;;;12.50;99.90;;;;;;5091677;28;19912;-23
2022/11/14 14:23:12;;;;;;;;;;;12.50;99.90;;;;;;5091722;28;19980;-23
2022/11/14 14:25:42;;;;;;;;;;;12.40;99.90;;;;;;5091717;28;19908;-24
2022/11/14 14:28:14;;;;;;;;;;;12.40;99.90;;;;;;5091126;28;19981;-24
2022/11/14 14:30:39;;;;;;;;;;;12.50;99.90;;;;;;5091844;28;19916;-23
2022/11/14 14:33:10;;;;;;;;;;;12.40;99.90;;;;;;5091530;28;20429;-23
2022/11/14 14:35:36;;;;;;;;;;;12.40;99.90;;;;;;5091799;28;19935;-24